sensor_id;sensor_type;location;lat;lon;timestamp;temperature;humidity
24678;DHT22;12800;53.094;8.778;2023-02-23T00:01:26;10.60;90.20
24678;DHT22;12800;53.094;8.778;2023-02-23T00:03:54;10.60;90.20
24678;DHT22;12800;53.094;8.778;2023-02-23T00:06:21;10.60;90.60
24678;DHT22;12800;53.094;8.778;2023-02-23T00:08:46;10.60;90.30
24678;DHT22;12800;53.094;8.778;2023-02-23T00:11:13;10.60;90.30
24678;DHT22;12800;53.094;8.778;2023-02-23T00:13:40;10.60;90.30
24678;DHT22;12800;53.094;8.778;2023-02-23T00:16:08;10.60;90.20
24678;DHT22;12800;53.094;8.778;2023-02-23T00:18:37;10.60;90.20
24678;DHT22;12800;53.094;8.778;2023-02-23T00:21:20;10.60;90.20
24678;DHT22;12800;53.094;8.778;2023-02-23T00:23:53;10.60;90.30
24678;DHT22;12800;53.094;8.778;2023-02-23T00:26:20;10.60;90.30
24678;DHT22;12800;53.094;8.778;2023-02-23T00:28:48;10.60;90.30
24678;DHT22;12800;53.094;8.778;2023-02-23T00:31:15;10.60;90.30
24678;DHT22;12800;53.094;8.778;2023-02-23T00:33:41;10.50;90.30
24678;DHT22;12800;53.094;8.778;2023-02-23T00:36:10;10.60;90.30
24678;DHT22;12800;53.094;8.778;2023-02-23T00:38:37;10.50;90.20
24678;DHT22;12800;53.094;8.778;2023-02-23T00:41:09;10.60;90.30
24678;DHT22;12800;53.094;8.778;2023-02-23T00:43:37;10.60;90.30
24678;DHT22;12800;53.094;8.778;2023-02-23T00:46:04;10.50;90.30
24678;DHT22;12800;53.094;8.778;2023-02-23T00:48:31;10.50;90.30
24678;DHT22;12800;53.094;8.778;2023-02-23T00:51:01;10.60;90.30
24678;DHT22;12800;53.094;8.778;2023-02-23T00:53:28;10.50;90.20
24678;DHT22;12800;53.094;8.778;2023-02-23T00:55:54;10.50;90.20
24678;DHT22;12800;53.094;8.778;2023-02-23T00:58:21;10.50;90.10
24678;DHT22;12800;53.094;8.778;2023-02-23T01:00:47;10.50;90.10
24678;DHT22;12800;53.094;8.778;2023-02-23T01:03:13;10.50;90.10
24678;DHT22;12800;53.094;8.778;2023-02-23T01:05:38;10.50;90.00
24678;DHT22;12800;53.094;8.778;2023-02-23T01:08:04;10.50;90.00
24678;DHT22;12800;53.094;8.778;2023-02-23T01:10:38;10.50;90.00
24678;DHT22;12800;53.094;8.778;2023-02-23T01:13:03;10.50;90.00
24678;DHT22;12800;53.094;8.778;2023-02-23T01:15:30;10.50;89.90
24678;DHT22;12800;53.094;8.778;2023-02-23T01:17:57;10.40;89.70
24678;DHT22;12800;53.094;8.778;2023-02-23T01:20:23;10.50;89.70
24678;DHT22;12800;53.094;8.778;2023-02-23T01:22:50;10.40;89.60
24678;DHT22;12800;53.094;8.778;2023-02-23T01:25:18;10.40;89.70
24678;DHT22;12800;53.094;8.778;2023-02-23T01:27:44;10.40;89.60
24678;DHT22;12800;53.094;8.778;2023-02-23T01:30:12;10.40;89.60
24678;DHT22;12800;53.094;8.778;2023-02-23T01:32:42;10.40;89.60
24678;DHT22;12800;53.094;8.778;2023-02-23T01:35:09;10.40;89.50
24678;DHT22;12800;53.094;8.778;2023-02-23T01:37:39;10.40;89.50
24678;DHT22;12800;53.094;8.778;2023-02-23T01:40:11;10.30;89.40
24678;DHT22;12800;53.094;8.778;2023-02-23T01:42:44;10.30;89.40
24678;DHT22;12800;53.094;8.778;2023-02-23T01:45:36;10.30;89.40
24678;DHT22;12800;53.094;8.778;2023-02-23T01:48:27;10.30;89.40
24678;DHT22;12800;53.094;8.778;2023-02-23T01:51:10;10.30;89.40
24678;DHT22;12800;53.094;8.778;2023-02-23T01:53:47;10.30;89.40
24678;DHT22;12800;53.094;8.778;2023-02-23T01:56:18;10.30;89.40
24678;DHT22;12800;53.094;8.778;2023-02-23T01:58:47;10.30;89.40
24678;DHT22;12800;53.094;8.778;2023-02-23T02:01:16;10.30;89.40
24678;DHT22;12800;53.094;8.778;2023-02-23T02:03:48;10.30;89.40
24678;DHT22;12800;53.094;8.778;2023-02-23T02:06:17;10.30;89.50
24678;DHT22;12800;53.094;8.778;2023-02-23T02:08:47;10.30;89.40
24678;DHT22;12800;53.094;8.778;2023-02-23T02:11:16;10.30;89.40
24678;DHT22;12800;53.094;8.778;2023-02-23T02:14:07;10.30;89.40
24678;DHT22;12800;53.094;8.778;2023-02-23T02:31:18;10.30;89.50
24678;DHT22;12800;53.094;8.778;2023-02-23T02:39:14;10.30;89.50
24678;DHT22;12800;53.094;8.778;2023-02-23T02:45:06;10.30;89.70
24678;DHT22;12800;53.094;8.778;2023-02-23T02:47:57;10.30;89.70
24678;DHT22;12800;53.094;8.778;2023-02-23T02:50:43;10.30;89.80
24678;DHT22;12800;53.094;8.778;2023-02-23T02:53:16;10.30;89.80
24678;DHT22;12800;53.094;8.778;2023-02-23T02:55:45;10.30;89.80
24678;DHT22;12800;53.094;8.778;2023-02-23T02:58:13;10.30;89.80
24678;DHT22;12800;53.094;8.778;2023-02-23T03:00:46;10.30;89.80
24678;DHT22;12800;53.094;8.778;2023-02-23T03:03:43;10.30;89.90
24678;DHT22;12800;53.094;8.778;2023-02-23T03:06:42;10.30;90.00
24678;DHT22;12800;53.094;8.778;2023-02-23T03:09:46;10.30;90.00
24678;DHT22;12800;53.094;8.778;2023-02-23T03:13:14;10.30;90.00
24678;DHT22;12800;53.094;8.778;2023-02-23T03:19:20;10.30;90.10
24678;DHT22;12800;53.094;8.778;2023-02-23T03:25:03;10.30;90.20
24678;DHT22;12800;53.094;8.778;2023-02-23T03:28:24;10.30;90.20
24678;DHT22;12800;53.094;8.778;2023-02-23T03:31:25;10.30;90.20
24678;DHT22;12800;53.094;8.778;2023-02-23T03:40:07;10.30;90.20
24678;DHT22;12800;53.094;8.778;2023-02-23T03:42:55;10.30;90.30
24678;DHT22;12800;53.094;8.778;2023-02-23T03:45:43;10.30;90.20
24678;DHT22;12800;53.094;8.778;2023-02-23T03:48:29;10.30;90.20
24678;DHT22;12800;53.094;8.778;2023-02-23T03:51:15;10.30;90.20
24678;DHT22;12800;53.094;8.778;2023-02-23T03:54:42;10.30;90.30
24678;DHT22;12800;53.094;8.778;2023-02-23T03:57:31;10.30;90.30
24678;DHT22;12800;53.094;8.778;2023-02-23T04:00:23;10.30;90.30
24678;DHT22;12800;53.094;8.778;2023-02-23T04:03:10;10.20;90.30
24678;DHT22;12800;53.094;8.778;2023-02-23T04:05:56;10.20;90.40
24678;DHT22;12800;53.094;8.778;2023-02-23T04:08:41;10.20;90.40
24678;DHT22;12800;53.094;8.778;2023-02-23T04:14:27;10.20;90.40
24678;DHT22;12800;53.094;8.778;2023-02-23T04:16:55;10.20;90.40
24678;DHT22;12800;53.094;8.778;2023-02-23T04:19:21;10.20;90.40
24678;DHT22;12800;53.094;8.778;2023-02-23T04:21:50;10.20;90.50
24678;DHT22;12800;53.094;8.778;2023-02-23T04:24:16;10.20;90.50
24678;DHT22;12800;53.094;8.778;2023-02-23T04:26:42;10.20;90.50
24678;DHT22;12800;53.094;8.778;2023-02-23T04:29:08;10.20;90.50
24678;DHT22;12800;53.094;8.778;2023-02-23T04:31:34;10.20;90.50
24678;DHT22;12800;53.094;8.778;2023-02-23T04:34:00;10.20;90.40
24678;DHT22;12800;53.094;8.778;2023-02-23T04:36:25;10.20;90.50
24678;DHT22;12800;53.094;8.778;2023-02-23T04:38:52;10.20;90.50
24678;DHT22;12800;53.094;8.778;2023-02-23T04:41:17;10.20;90.60
24678;DHT22;12800;53.094;8.778;2023-02-23T04:43:44;10.20;90.50
24678;DHT22;12800;53.094;8.778;2023-02-23T04:46:09;10.20;90.60
24678;DHT22;12800;53.094;8.778;2023-02-23T04:48:35;10.20;90.60
24678;DHT22;12800;53.094;8.778;2023-02-23T04:51:01;10.20;90.50
24678;DHT22;12800;53.094;8.778;2023-02-23T04:53:26;10.20;90.60
24678;DHT22;12800;53.094;8.778;2023-02-23T04:55:52;10.20;90.60
24678;DHT22;12800;53.094;8.778;2023-02-23T04:58:18;10.20;90.60
24678;DHT22;12800;53.094;8.778;2023-02-23T05:00:43;10.20;90.70
24678;DHT22;12800;53.094;8.778;2023-02-23T05:03:09;10.20;90.70
24678;DHT22;12800;53.094;8.778;2023-02-23T05:05:35;10.10;90.60
24678;DHT22;12800;53.094;8.778;2023-02-23T05:08:01;10.10;90.60
24678;DHT22;12800;53.094;8.778;2023-02-23T05:10:27;10.10;90.60
24678;DHT22;12800;53.094;8.778;2023-02-23T05:12:53;10.10;90.70
24678;DHT22;12800;53.094;8.778;2023-02-23T05:15:19;10.10;90.70
24678;DHT22;12800;53.094;8.778;2023-02-23T05:17:45;10.10;90.70
24678;DHT22;12800;53.094;8.778;2023-02-23T05:20:12;10.20;90.80
24678;DHT22;12800;53.094;8.778;2023-02-23T05:22:38;10.20;90.70
24678;DHT22;12800;53.094;8.778;2023-02-23T05:25:05;10.10;90.70
24678;DHT22;12800;53.094;8.778;2023-02-23T05:27:31;10.10;90.70
24678;DHT22;12800;53.094;8.778;2023-02-23T05:29:58;10.10;90.70
24678;DHT22;12800;53.094;8.778;2023-02-23T05:32:24;10.10;90.70
24678;DHT22;12800;53.094;8.778;2023-02-23T05:34:49;10.10;90.80
24678;DHT22;12800;53.094;8.778;2023-02-23T05:37:15;10.10;90.70
24678;DHT22;12800;53.094;8.778;2023-02-23T05:39:40;10.10;90.70
24678;DHT22;12800;53.094;8.778;2023-02-23T05:42:06;10.10;90.70
24678;DHT22;12800;53.094;8.778;2023-02-23T05:44:31;10.10;90.70
24678;DHT22;12800;53.094;8.778;2023-02-23T05:46:57;10.00;90.70
24678;DHT22;12800;53.094;8.778;2023-02-23T05:49:23;10.00;90.70
24678;DHT22;12800;53.094;8.778;2023-02-23T05:51:48;10.00;90.80
24678;DHT22;12800;53.094;8.778;2023-02-23T05:54:14;10.00;90.80
24678;DHT22;12800;53.094;8.778;2023-02-23T05:56:41;10.00;90.80
24678;DHT22;12800;53.094;8.778;2023-02-23T05:59:07;10.00;90.80
24678;DHT22;12800;53.094;8.778;2023-02-23T06:01:32;10.00;90.80
24678;DHT22;12800;53.094;8.778;2023-02-23T06:03:58;10.00;90.90
24678;DHT22;12800;53.094;8.778;2023-02-23T06:06:24;10.00;90.90
24678;DHT22;12800;53.094;8.778;2023-02-23T06:08:52;10.00;90.80
24678;DHT22;12800;53.094;8.778;2023-02-23T06:11:17;10.00;90.80
24678;DHT22;12800;53.094;8.778;2023-02-23T06:13:43;10.00;90.80
24678;DHT22;12800;53.094;8.778;2023-02-23T06:16:09;10.00;90.80
24678;DHT22;12800;53.094;8.778;2023-02-23T06:18:35;10.00;90.80
24678;DHT22;12800;53.094;8.778;2023-02-23T06:21:01;10.00;90.90
24678;DHT22;12800;53.094;8.778;2023-02-23T06:23:29;10.00;90.90
24678;DHT22;12800;53.094;8.778;2023-02-23T06:25:55;10.00;91.30
24678;DHT22;12800;53.094;8.778;2023-02-23T06:28:21;10.00;90.90
24678;DHT22;12800;53.094;8.778;2023-02-23T06:30:50;10.00;90.90
24678;DHT22;12800;53.094;8.778;2023-02-23T06:33:16;10.00;90.90
24678;DHT22;12800;53.094;8.778;2023-02-23T06:35:42;10.00;90.90
24678;DHT22;12800;53.094;8.778;2023-02-23T06:38:07;10.00;90.90
24678;DHT22;12800;53.094;8.778;2023-02-23T06:40:33;10.00;90.90
24678;DHT22;12800;53.094;8.778;2023-02-23T06:42:59;10.00;90.90
24678;DHT22;12800;53.094;8.778;2023-02-23T06:45:24;10.00;90.90
24678;DHT22;12800;53.094;8.778;2023-02-23T06:47:50;10.00;90.90
24678;DHT22;12800;53.094;8.778;2023-02-23T06:50:18;10.00;90.80
24678;DHT22;12800;53.094;8.778;2023-02-23T06:52:43;10.00;90.80
24678;DHT22;12800;53.094;8.778;2023-02-23T06:55:10;10.00;90.80
24678;DHT22;12800;53.094;8.778;2023-02-23T06:57:37;10.00;90.80
24678;DHT22;12800;53.094;8.778;2023-02-23T07:00:04;10.10;90.90
24678;DHT22;12800;53.094;8.778;2023-02-23T07:02:30;10.10;90.80
24678;DHT22;12800;53.094;8.778;2023-02-23T07:04:56;10.10;90.80
24678;DHT22;12800;53.094;8.778;2023-02-23T07:07:23;10.10;90.80
24678;DHT22;12800;53.094;8.778;2023-02-23T07:09:48;10.10;90.70
24678;DHT22;12800;53.094;8.778;2023-02-23T07:12:14;10.00;90.60
24678;DHT22;12800;53.094;8.778;2023-02-23T07:14:40;10.00;90.60
24678;DHT22;12800;53.094;8.778;2023-02-23T07:17:05;10.00;90.70
24678;DHT22;12800;53.094;8.778;2023-02-23T07:19:32;10.00;90.60
24678;DHT22;12800;53.094;8.778;2023-02-23T07:21:57;10.00;90.60
24678;DHT22;12800;53.094;8.778;2023-02-23T07:24:23;10.00;90.60
24678;DHT22;12800;53.094;8.778;2023-02-23T07:26:49;10.00;90.60
24678;DHT22;12800;53.094;8.778;2023-02-23T07:29:16;10.00;90.60
24678;DHT22;12800;53.094;8.778;2023-02-23T07:31:42;10.00;90.60
24678;DHT22;12800;53.094;8.778;2023-02-23T07:34:08;10.00;90.60
24678;DHT22;12800;53.094;8.778;2023-02-23T07:36:34;10.10;90.60
24678;DHT22;12800;53.094;8.778;2023-02-23T07:39:02;10.10;90.60
24678;DHT22;12800;53.094;8.778;2023-02-23T07:41:28;10.10;90.90
24678;DHT22;12800;53.094;8.778;2023-02-23T07:43:53;10.10;90.60
24678;DHT22;12800;53.094;8.778;2023-02-23T07:46:19;10.10;90.50
24678;DHT22;12800;53.094;8.778;2023-02-23T07:48:45;10.10;90.50
24678;DHT22;12800;53.094;8.778;2023-02-23T07:51:12;10.10;90.50
24678;DHT22;12800;53.094;8.778;2023-02-23T07:53:38;10.20;90.50
24678;DHT22;12800;53.094;8.778;2023-02-23T07:56:04;10.20;90.60
24678;DHT22;12800;53.094;8.778;2023-02-23T07:58:30;10.20;90.50
24678;DHT22;12800;53.094;8.778;2023-02-23T08:00:57;10.20;90.40
24678;DHT22;12800;53.094;8.778;2023-02-23T08:03:23;10.20;90.30
24678;DHT22;12800;53.094;8.778;2023-02-23T08:05:49;10.20;90.40
24678;DHT22;12800;53.094;8.778;2023-02-23T08:08:15;10.20;90.40
24678;DHT22;12800;53.094;8.778;2023-02-23T08:10:40;10.20;90.40
24678;DHT22;12800;53.094;8.778;2023-02-23T08:13:06;10.20;90.30
24678;DHT22;12800;53.094;8.778;2023-02-23T08:15:32;10.20;90.20
24678;DHT22;12800;53.094;8.778;2023-02-23T08:17:57;10.20;90.20
24678;DHT22;12800;53.094;8.778;2023-02-23T08:20:23;10.20;90.20
24678;DHT22;12800;53.094;8.778;2023-02-23T08:22:56;10.10;90.20
24678;DHT22;12800;53.094;8.778;2023-02-23T08:25:22;10.10;90.20
24678;DHT22;12800;53.094;8.778;2023-02-23T08:27:48;10.10;90.70
24678;DHT22;12800;53.094;8.778;2023-02-23T08:30:17;10.10;90.20
24678;DHT22;12800;53.094;8.778;2023-02-23T08:32:44;10.10;90.20
24678;DHT22;12800;53.094;8.778;2023-02-23T08:35:10;10.10;90.20
24678;DHT22;12800;53.094;8.778;2023-02-23T08:37:36;10.10;90.30
24678;DHT22;12800;53.094;8.778;2023-02-23T08:40:02;10.10;90.30
24678;DHT22;12800;53.094;8.778;2023-02-23T08:42:28;10.10;90.30
24678;DHT22;12800;53.094;8.778;2023-02-23T08:44:53;10.10;90.20
24678;DHT22;12800;53.094;8.778;2023-02-23T08:47:19;10.10;90.20
24678;DHT22;12800;53.094;8.778;2023-02-23T08:49:48;10.10;90.30
24678;DHT22;12800;53.094;8.778;2023-02-23T08:52:13;10.20;90.40
24678;DHT22;12800;53.094;8.778;2023-02-23T08:54:39;10.20;90.40
24678;DHT22;12800;53.094;8.778;2023-02-23T08:57:05;10.20;90.40
24678;DHT22;12800;53.094;8.778;2023-02-23T08:59:31;10.20;90.40
24678;DHT22;12800;53.094;8.778;2023-02-23T09:01:56;10.20;90.40
24678;DHT22;12800;53.094;8.778;2023-02-23T09:04:22;10.20;90.80
24678;DHT22;12800;53.094;8.778;2023-02-23T09:06:48;10.30;90.50
24678;DHT22;12800;53.094;8.778;2023-02-23T09:09:15;10.30;90.40
24678;DHT22;12800;53.094;8.778;2023-02-23T09:11:41;10.30;90.40
24678;DHT22;12800;53.094;8.778;2023-02-23T09:14:06;10.30;90.40
24678;DHT22;12800;53.094;8.778;2023-02-23T09:16:33;10.40;90.30
24678;DHT22;12800;53.094;8.778;2023-02-23T09:19:02;10.40;90.70
24678;DHT22;12800;53.094;8.778;2023-02-23T09:21:28;10.40;90.30
24678;DHT22;12800;53.094;8.778;2023-02-23T09:23:55;10.40;90.30
24678;DHT22;12800;53.094;8.778;2023-02-23T09:26:22;10.40;90.20
24678;DHT22;12800;53.094;8.778;2023-02-23T09:28:49;10.40;90.10
24678;DHT22;12800;53.094;8.778;2023-02-23T09:31:20;10.30;90.20
24678;DHT22;12800;53.094;8.778;2023-02-23T09:33:45;10.30;90.20
24678;DHT22;12800;53.094;8.778;2023-02-23T09:36:17;10.30;90.20
24678;DHT22;12800;53.094;8.778;2023-02-23T09:38:45;10.30;90.30
24678;DHT22;12800;53.094;8.778;2023-02-23T09:49:29;10.30;90.50
24678;DHT22;12800;53.094;8.778;2023-02-23T09:51:59;10.30;90.50
24678;DHT22;12800;53.094;8.778;2023-02-23T09:54:29;10.30;90.50
24678;DHT22;12800;53.094;8.778;2023-02-23T09:56:55;10.40;90.50
24678;DHT22;12800;53.094;8.778;2023-02-23T09:59:24;10.40;90.50
24678;DHT22;12800;53.094;8.778;2023-02-23T10:01:57;10.40;90.50
24678;DHT22;12800;53.094;8.778;2023-02-23T10:04:30;10.40;90.50
24678;DHT22;12800;53.094;8.778;2023-02-23T10:23:11;10.60;90.30
24678;DHT22;12800;53.094;8.778;2023-02-23T10:25:51;10.60;90.20
24678;DHT22;12800;53.094;8.778;2023-02-23T10:28:20;10.60;90.30
24678;DHT22;12800;53.094;8.778;2023-02-23T10:30:49;10.60;90.20
24678;DHT22;12800;53.094;8.778;2023-02-23T10:35:44;10.60;90.30
24678;DHT22;12800;53.094;8.778;2023-02-23T10:38:17;10.60;90.30
24678;DHT22;12800;53.094;8.778;2023-02-23T10:40:48;10.60;90.30
24678;DHT22;12800;53.094;8.778;2023-02-23T10:43:14;10.60;90.30
24678;DHT22;12800;53.094;8.778;2023-02-23T10:45:52;10.60;90.20
24678;DHT22;12800;53.094;8.778;2023-02-23T10:48:26;10.60;90.20
24678;DHT22;12800;53.094;8.778;2023-02-23T10:50:55;10.60;90.10
24678;DHT22;12800;53.094;8.778;2023-02-23T10:53:33;10.60;90.10
24678;DHT22;12800;53.094;8.778;2023-02-23T10:56:09;10.60;90.10
24678;DHT22;12800;53.094;8.778;2023-02-23T10:58:56;10.60;90.00
24678;DHT22;12800;53.094;8.778;2023-02-23T11:01:35;10.60;90.00
24678;DHT22;12800;53.094;8.778;2023-02-23T11:06:43;10.50;89.80
24678;DHT22;12800;53.094;8.778;2023-02-23T11:09:30;10.40;89.90
24678;DHT22;12800;53.094;8.778;2023-02-23T11:12:00;10.30;89.80
24678;DHT22;12800;53.094;8.778;2023-02-23T11:14:28;10.30;89.90
24678;DHT22;12800;53.094;8.778;2023-02-23T11:16:55;10.20;90.00
24678;DHT22;12800;53.094;8.778;2023-02-23T11:19:26;10.20;90.00
24678;DHT22;12800;53.094;8.778;2023-02-23T11:21:54;10.10;90.00
24678;DHT22;12800;53.094;8.778;2023-02-23T11:24:34;10.10;90.10
24678;DHT22;12800;53.094;8.778;2023-02-23T11:27:09;10.00;90.10
24678;DHT22;12800;53.094;8.778;2023-02-23T11:29:44;10.00;90.20
24678;DHT22;12800;53.094;8.778;2023-02-23T11:32:19;10.00;90.30
24678;DHT22;12800;53.094;8.778;2023-02-23T11:34:46;10.00;90.20
24678;DHT22;12800;53.094;8.778;2023-02-23T11:42:27;10.00;90.50
24678;DHT22;12800;53.094;8.778;2023-02-23T11:45:06;9.90;90.40
24678;DHT22;12800;53.094;8.778;2023-02-23T11:47:37;9.90;90.40
24678;DHT22;12800;53.094;8.778;2023-02-23T11:50:05;9.90;90.50
24678;DHT22;12800;53.094;8.778;2023-02-23T11:52:31;9.90;90.50
24678;DHT22;12800;53.094;8.778;2023-02-23T11:54:59;10.00;90.60
24678;DHT22;12800;53.094;8.778;2023-02-23T11:57:29;9.90;90.50
24678;DHT22;12800;53.094;8.778;2023-02-23T11:59:56;9.90;90.60
24678;DHT22;12800;53.094;8.778;2023-02-23T12:02:26;10.00;90.70
24678;DHT22;12800;53.094;8.778;2023-02-23T12:05:08;10.00;90.70
24678;DHT22;12800;53.094;8.778;2023-02-23T12:07:40;10.00;90.80
24678;DHT22;12800;53.094;8.778;2023-02-23T12:15:53;10.00;90.60
24678;DHT22;12800;53.094;8.778;2023-02-23T12:18:32;9.90;90.60
24678;DHT22;12800;53.094;8.778;2023-02-23T12:21:34;9.90;90.60
24678;DHT22;12800;53.094;8.778;2023-02-23T12:26:39;9.90;90.70
24678;DHT22;12800;53.094;8.778;2023-02-23T12:29:20;9.90;90.70
24678;DHT22;12800;53.094;8.778;2023-02-23T12:31:56;9.90;90.60
24678;DHT22;12800;53.094;8.778;2023-02-23T12:34:34;9.90;90.70
24678;DHT22;12800;53.094;8.778;2023-02-23T12:39:53;9.90;90.80
24678;DHT22;12800;53.094;8.778;2023-02-23T12:42:49;9.90;90.80
24678;DHT22;12800;53.094;8.778;2023-02-23T12:45:23;9.80;90.70
24678;DHT22;12800;53.094;8.778;2023-02-23T12:50:54;9.70;90.50
24678;DHT22;12800;53.094;8.778;2023-02-23T12:53:40;9.60;90.40
24678;DHT22;12800;53.094;8.778;2023-02-23T12:56:15;9.60;90.40
24678;DHT22;12800;53.094;8.778;2023-02-23T13:01:54;9.60;90.40
24678;DHT22;12800;53.094;8.778;2023-02-23T13:12:42;9.70;89.20
24678;DHT22;12800;53.094;8.778;2023-02-23T13:15:23;9.70;89.00
24678;DHT22;12800;53.094;8.778;2023-02-23T13:24:01;9.80;88.30
24678;DHT22;12800;53.094;8.778;2023-02-23T13:26:36;9.90;88.20
24678;DHT22;12800;53.094;8.778;2023-02-23T13:32:00;10.00;87.60
24678;DHT22;12800;53.094;8.778;2023-02-23T13:34:32;10.00;87.40
24678;DHT22;12800;53.094;8.778;2023-02-23T13:37:03;10.10;87.10
24678;DHT22;12800;53.094;8.778;2023-02-23T13:39:51;10.10;86.60
24678;DHT22;12800;53.094;8.778;2023-02-23T13:45:37;10.10;86.40
24678;DHT22;12800;53.094;8.778;2023-02-23T13:50:54;10.20;86.50
24678;DHT22;12800;53.094;8.778;2023-02-23T13:53:41;10.20;86.50
24678;DHT22;12800;53.094;8.778;2023-02-23T13:56:10;10.20;86.30
24678;DHT22;12800;53.094;8.778;2023-02-23T13:58:45;10.30;86.40
24678;DHT22;12800;53.094;8.778;2023-02-23T14:01:19;10.30;86.00
24678;DHT22;12800;53.094;8.778;2023-02-23T14:03:52;10.30;85.70
24678;DHT22;12800;53.094;8.778;2023-02-23T14:06:21;10.30;85.30
24678;DHT22;12800;53.094;8.778;2023-02-23T14:08:54;10.30;84.90
24678;DHT22;12800;53.094;8.778;2023-02-23T14:11:35;10.30;85.00
24678;DHT22;12800;53.094;8.778;2023-02-23T14:14:03;10.30;85.00
24678;DHT22;12800;53.094;8.778;2023-02-23T14:16:29;10.20;84.50
24678;DHT22;12800;53.094;8.778;2023-02-23T14:19:34;10.20;84.50
24678;DHT22;12800;53.094;8.778;2023-02-23T14:22:04;10.20;84.40
24678;DHT22;12800;53.094;8.778;2023-02-23T14:24:30;10.20;84.60
24678;DHT22;12800;53.094;8.778;2023-02-23T14:30:29;10.30;84.40
24678;DHT22;12800;53.094;8.778;2023-02-23T14:32:30;10.30;84.40
24678;DHT22;12800;53.094;8.778;2023-02-23T14:35:01;10.30;84.30
24678;DHT22;12800;53.094;8.778;2023-02-23T14:37:38;10.40;84.30
24678;DHT22;12800;53.094;8.778;2023-02-23T14:40:15;10.40;84.20
24678;DHT22;12800;53.094;8.778;2023-02-23T14:42:46;10.40;84.00
24678;DHT22;12800;53.094;8.778;2023-02-23T14:45:25;10.40;84.00
24678;DHT22;12800;53.094;8.778;2023-02-23T14:48:00;10.50;84.00
24678;DHT22;12800;53.094;8.778;2023-02-23T14:50:29;10.50;83.90
24678;DHT22;12800;53.094;8.778;2023-02-23T14:52:56;10.50;84.00
24678;DHT22;12800;53.094;8.778;2023-02-23T14:55:28;10.60;84.60
24678;DHT22;12800;53.094;8.778;2023-02-23T14:57:55;10.60;83.60
24678;DHT22;12800;53.094;8.778;2023-02-23T15:00:22;10.60;83.70
24678;DHT22;12800;53.094;8.778;2023-02-23T15:03:08;10.60;83.80
24678;DHT22;12800;53.094;8.778;2023-02-23T15:05:50;10.60;83.80
24678;DHT22;12800;53.094;8.778;2023-02-23T15:08:23;10.60;83.60
24678;DHT22;12800;53.094;8.778;2023-02-23T15:11:12;10.60;83.60
24678;DHT22;12800;53.094;8.778;2023-02-23T15:13:40;10.60;83.70
24678;DHT22;12800;53.094;8.778;2023-02-23T15:16:20;10.60;83.80
24678;DHT22;12800;53.094;8.778;2023-02-23T15:18:48;10.50;83.60
24678;DHT22;12800;53.094;8.778;2023-02-23T15:21:19;10.50;84.30
24678;DHT22;12800;53.094;8.778;2023-02-23T15:23:48;10.50;83.70
24678;DHT22;12800;53.094;8.778;2023-02-23T15:26:28;10.40;83.80
24678;DHT22;12800;53.094;8.778;2023-02-23T15:29:31;10.40;83.90
24678;DHT22;12800;53.094;8.778;2023-02-23T15:32:27;10.30;84.10
24678;DHT22;12800;53.094;8.778;2023-02-23T15:34:53;10.40;84.30
24678;DHT22;12800;53.094;8.778;2023-02-23T15:37:36;10.40;84.30
24678;DHT22;12800;53.094;8.778;2023-02-23T15:42:44;10.40;84.40
24678;DHT22;12800;53.094;8.778;2023-02-23T15:45:26;10.40;84.40
24678;DHT22;12800;53.094;8.778;2023-02-23T15:47:55;10.30;84.40
24678;DHT22;12800;53.094;8.778;2023-02-23T15:50:27;10.30;84.80
24678;DHT22;12800;53.094;8.778;2023-02-23T15:52:58;10.20;85.30
24678;DHT22;12800;53.094;8.778;2023-02-23T15:55:28;10.10;85.60
24678;DHT22;12800;53.094;8.778;2023-02-23T15:57:57;10.00;85.80
24678;DHT22;12800;53.094;8.778;2023-02-23T16:00:37;9.90;86.30
24678;DHT22;12800;53.094;8.778;2023-02-23T16:03:05;9.70;86.30
24678;DHT22;12800;53.094;8.778;2023-02-23T16:05:33;9.60;86.70
24678;DHT22;12800;53.094;8.778;2023-02-23T16:08:23;9.50;87.10
24678;DHT22;12800;53.094;8.778;2023-02-23T16:10:59;9.40;87.20
24678;DHT22;12800;53.094;8.778;2023-02-23T16:13:26;9.30;86.80
24678;DHT22;12800;53.094;8.778;2023-02-23T16:15:53;9.20;87.00
24678;DHT22;12800;53.094;8.778;2023-02-23T16:18:21;9.00;86.60
24678;DHT22;12800;53.094;8.778;2023-02-23T16:20:54;8.90;86.60
24678;DHT22;12800;53.094;8.778;2023-02-23T16:26:00;8.60;87.70
24678;DHT22;12800;53.094;8.778;2023-02-23T16:28:32;8.50;86.90
24678;DHT22;12800;53.094;8.778;2023-02-23T16:31:06;8.50;87.00
24678;DHT22;12800;53.094;8.778;2023-02-23T16:38:58;8.40;86.70
24678;DHT22;12800;53.094;8.778;2023-02-23T16:41:27;8.40;86.80
24678;DHT22;12800;53.094;8.778;2023-02-23T16:43:57;8.30;86.20
24678;DHT22;12800;53.094;8.778;2023-02-23T16:46:26;8.30;86.20
24678;DHT22;12800;53.094;8.778;2023-02-23T16:48:52;8.20;86.00
24678;DHT22;12800;53.094;8.778;2023-02-23T16:51:19;8.20;86.00
24678;DHT22;12800;53.094;8.778;2023-02-23T16:53:45;8.10;85.90
24678;DHT22;12800;53.094;8.778;2023-02-23T16:56:14;8.00;85.80
24678;DHT22;12800;53.094;8.778;2023-02-23T16:58:43;8.00;85.90
24678;DHT22;12800;53.094;8.778;2023-02-23T17:01:12;8.00;85.80
24678;DHT22;12800;53.094;8.778;2023-02-23T17:03:41;7.90;85.90
24678;DHT22;12800;53.094;8.778;2023-02-23T17:06:10;7.90;85.80
24678;DHT22;12800;53.094;8.778;2023-02-23T17:08:37;7.90;85.90
24678;DHT22;12800;53.094;8.778;2023-02-23T17:11:03;7.90;86.10
24678;DHT22;12800;53.094;8.778;2023-02-23T17:13:30;7.90;86.00
24678;DHT22;12800;53.094;8.778;2023-02-23T17:15:59;7.80;86.00
24678;DHT22;12800;53.094;8.778;2023-02-23T17:18:30;7.90;86.20
24678;DHT22;12800;53.094;8.778;2023-02-23T17:20:57;7.80;86.00
24678;DHT22;12800;53.094;8.778;2023-02-23T17:23:24;7.80;86.00
24678;DHT22;12800;53.094;8.778;2023-02-23T17:25:52;7.80;85.70
24678;DHT22;12800;53.094;8.778;2023-02-23T17:28:18;7.80;85.90
24678;DHT22;12800;53.094;8.778;2023-02-23T17:30:43;7.80;86.00
24678;DHT22;12800;53.094;8.778;2023-02-23T17:33:10;7.90;85.80
24678;DHT22;12800;53.094;8.778;2023-02-23T17:35:35;7.90;85.60
24678;DHT22;12800;53.094;8.778;2023-02-23T17:38:06;7.90;85.10
24678;DHT22;12800;53.094;8.778;2023-02-23T17:40:32;7.90;85.00
24678;DHT22;12800;53.094;8.778;2023-02-23T17:43:02;7.90;84.70
24678;DHT22;12800;53.094;8.778;2023-02-23T17:45:29;7.90;84.40
24678;DHT22;12800;53.094;8.778;2023-02-23T17:47:56;7.90;84.30
24678;DHT22;12800;53.094;8.778;2023-02-23T17:50:23;7.90;84.20
24678;DHT22;12800;53.094;8.778;2023-02-23T17:52:51;7.90;84.00
24678;DHT22;12800;53.094;8.778;2023-02-23T17:55:18;7.90;83.90
24678;DHT22;12800;53.094;8.778;2023-02-23T17:57:44;7.90;83.80
24678;DHT22;12800;53.094;8.778;2023-02-23T18:00:12;7.90;83.70
24678;DHT22;12800;53.094;8.778;2023-02-23T18:02:39;7.80;83.30
24678;DHT22;12800;53.094;8.778;2023-02-23T18:05:06;7.80;83.30